createdAt,value
2024-01-11T00:04:22.498Z,4.64
2024-01-11T00:09:31.704Z,4.62
2024-01-11T00:14:39.310Z,4.68
2024-01-11T00:19:47.261Z,4.51
2024-01-11T00:24:55.372Z,4.33
2024-01-11T00:30:06.397Z,4.21
2024-01-11T00:35:03.956Z,4.21
2024-01-11T00:40:14.665Z,4.58
2024-01-11T00:45:12.336Z,4.29
2024-01-11T00:50:20.125Z,4.13
2024-01-11T00:55:27.746Z,4.19
2024-01-11T01:00:36.399Z,4.06
2024-01-11T01:05:44.395Z,4.00
2024-01-11T01:10:52.712Z,4.05
2024-01-11T01:16:00.297Z,4.04
2024-01-11T01:21:08.145Z,3.79
2024-01-11T01:26:16.005Z,3.89
2024-01-11T01:31:23.832Z,3.98
2024-01-11T01:36:31.598Z,3.91
2024-01-11T01:41:39.480Z,3.83
2024-01-11T01:46:47.131Z,3.54
2024-01-11T01:51:55.023Z,3.87
2024-01-11T01:57:02.624Z,3.74
2024-01-11T02:02:10.787Z,3.88
2024-01-11T02:07:18.266Z,3.68
2024-01-11T02:12:26.250Z,3.84
2024-01-11T02:17:34.175Z,3.55
2024-01-11T02:22:41.744Z,3.71
2024-01-11T02:27:49.554Z,3.66
2024-01-11T02:32:57.541Z,3.47
2024-01-11T02:38:05.116Z,3.40
2024-01-11T02:43:12.937Z,3.28
2024-01-11T02:48:21.864Z,3.50
2024-01-11T02:53:29.516Z,3.27
2024-01-11T02:58:37.126Z,3.36
2024-01-11T03:03:47.501Z,3.26
2024-01-11T03:08:53.972Z,3.25
2024-01-11T03:14:02.111Z,3.40
2024-01-11T03:19:09.653Z,3.34
2024-01-11T03:24:17.687Z,3.12
2024-01-11T03:29:25.294Z,3.19
2024-01-11T03:34:33.277Z,3.18
2024-01-11T03:39:41.408Z,2.91
2024-01-11T03:44:49.323Z,3.16
2024-01-11T03:49:57.999Z,3.12
2024-01-11T03:55:05.647Z,3.14
2024-01-11T04:00:13.259Z,3.05
2024-01-11T04:05:21.617Z,2.96
2024-01-11T04:10:29.421Z,3.01
2024-01-11T04:15:37.866Z,3.20
2024-01-11T04:20:45.878Z,3.10
2024-01-11T04:25:53.917Z,2.90
2024-01-11T04:31:01.898Z,2.95
2024-01-11T04:36:10.930Z,3.05
2024-01-11T04:41:18.589Z,3.10
2024-01-11T04:46:27.015Z,2.57
2024-01-11T04:51:34.795Z,2.93
2024-01-11T04:56:42.798Z,2.94
2024-01-11T05:01:50.714Z,2.73
2024-01-11T05:06:59.213Z,2.75
2024-01-11T05:12:06.861Z,2.70
2024-01-11T05:17:15.218Z,2.89
2024-01-11T05:22:23.151Z,2.67
2024-01-11T05:27:31.224Z,2.67
2024-01-11T05:32:40.433Z,2.62
2024-01-11T05:37:47.912Z,2.77
2024-01-11T05:42:55.703Z,2.70
2024-01-11T05:48:04.066Z,2.51
2024-01-11T05:53:11.675Z,2.94
2024-01-11T05:58:19.662Z,2.58
2024-01-11T06:03:27.428Z,2.67
2024-01-11T06:08:35.293Z,2.53
2024-01-11T06:13:42.905Z,2.58
2024-01-11T06:18:51.096Z,2.55
2024-01-11T06:23:58.595Z,2.47
2024-01-11T06:29:06.353Z,2.56
2024-01-11T06:34:13.860Z,2.43
2024-01-11T06:39:21.742Z,2.57
2024-01-11T06:44:29.490Z,2.45
2024-01-11T06:49:37.597Z,2.66
2024-01-11T06:54:45.223Z,2.46
2024-01-11T06:59:53.154Z,2.55
2024-01-11T07:05:01.976Z,2.38
2024-01-11T07:10:09.749Z,2.44
2024-01-11T07:15:18.462Z,3.87
2024-01-11T07:20:24.978Z,3.74
2024-01-11T07:25:33.551Z,4.48
2024-01-11T07:30:41.653Z,5.22
2024-01-11T07:35:49.094Z,5.46
2024-01-11T07:41:00.022Z,4.98
2024-01-11T07:45:57.448Z,5.41
2024-01-11T07:51:06.386Z,5.62
2024-01-11T07:56:15.047Z,6.01
2024-01-11T08:01:22.836Z,5.93
2024-01-11T08:06:30.444Z,6.16
2024-01-11T08:11:40.779Z,6.15
2024-01-11T08:16:45.320Z,6.10
2024-01-11T08:21:53.300Z,6.50
2024-01-11T08:27:00.748Z,5.81
2024-01-11T08:32:19.451Z,5.82
2024-01-11T08:37:15.784Z,6.00
2024-01-11T08:42:23.478Z,5.69
2024-01-11T08:47:31.220Z,6.11
2024-01-11T08:52:40.164Z,5.85
2024-01-11T08:57:47.921Z,5.72
2024-01-11T09:02:56.087Z,6.16
2024-01-11T09:08:03.733Z,5.82
2024-01-11T09:13:13.255Z,5.89
2024-01-11T09:18:18.957Z,6.01
2024-01-11T09:23:26.926Z,5.67
2024-01-11T09:28:34.583Z,6.10
2024-01-11T09:33:43.528Z,5.97
2024-01-11T09:38:51.344Z,5.78
2024-01-11T09:43:59.075Z,5.56
2024-01-11T09:49:06.610Z,5.66
2024-01-11T09:54:14.720Z,5.91
2024-01-11T09:59:22.492Z,5.62
2024-01-11T10:04:30.367Z,4.98
2024-01-11T10:09:37.830Z,5.55
2024-01-11T10:14:45.723Z,5.04
2024-01-11T10:19:53.333Z,5.08
2024-01-11T10:25:01.238Z,5.19
2024-01-11T10:30:08.943Z,4.98
2024-01-11T10:35:16.990Z,5.19
2024-01-11T10:40:24.431Z,5.13
2024-01-11T10:45:32.447Z,5.04
2024-01-11T10:50:41.246Z,4.78
2024-01-11T10:55:49.122Z,4.92
2024-01-11T11:00:57.145Z,5.29
2024-01-11T11:06:05.300Z,5.06
2024-01-11T11:11:12.844Z,4.81
2024-01-11T11:16:20.940Z,4.70
2024-01-11T11:21:28.643Z,4.54
2024-01-11T11:26:37.077Z,4.66
2024-01-11T11:31:44.590Z,4.82
2024-01-11T11:36:52.574Z,4.49
2024-01-11T11:42:00.043Z,4.42
2024-01-11T11:47:08.282Z,4.80
2024-01-11T11:52:15.877Z,4.59
2024-01-11T11:57:23.782Z,3.99
2024-01-11T12:02:32.332Z,3.96
2024-01-11T12:07:40.142Z,3.99
2024-01-11T12:12:47.953Z,4.38
2024-01-11T12:17:55.895Z,4.22
2024-01-11T12:23:03.597Z,3.97
2024-01-11T12:28:11.462Z,4.08
2024-01-11T12:33:19.135Z,4.08
2024-01-11T12:38:27.005Z,3.90
2024-01-11T12:43:34.567Z,3.86
2024-01-11T12:48:42.424Z,3.84
2024-01-11T12:53:49.924Z,4.06
2024-01-11T12:58:57.938Z,3.72
2024-01-11T13:04:05.587Z,3.75
2024-01-11T13:09:13.327Z,3.57
2024-01-11T13:14:21.076Z,3.55
2024-01-11T13:19:28.864Z,3.72
2024-01-11T13:24:38.287Z,3.66
2024-01-11T13:29:46.773Z,3.43
2024-01-11T13:34:54.369Z,3.50
2024-01-11T13:40:02.524Z,3.41
2024-01-11T13:45:10.174Z,3.17
2024-01-11T13:50:18.176Z,3.40
2024-01-11T13:55:25.773Z,3.50
2024-01-11T14:00:33.905Z,3.39
2024-01-11T14:05:41.434Z,3.25
2024-01-11T14:10:49.475Z,3.09
2024-01-11T14:15:56.990Z,3.23
2024-01-11T14:21:05.112Z,3.26
2024-01-11T14:26:12.856Z,2.83
2024-01-11T14:31:20.512Z,3.03
2024-01-11T14:36:27.975Z,2.94
2024-01-11T14:41:35.825Z,2.93
2024-01-11T14:46:43.230Z,3.17
2024-01-11T14:51:51.307Z,3.10
2024-01-11T14:56:59.056Z,2.75
2024-01-11T15:02:07.191Z,2.97
2024-01-11T15:07:14.730Z,3.07
2024-01-11T15:12:22.461Z,2.84
2024-01-11T15:17:29.965Z,3.07
2024-01-11T15:22:37.713Z,2.99
2024-01-11T15:27:45.411Z,3.12
2024-01-11T15:32:56.258Z,2.77
2024-01-11T15:38:01.966Z,2.83
2024-01-11T15:43:09.800Z,2.50
2024-01-11T15:48:17.422Z,2.80
2024-01-11T15:53:25.222Z,2.56
2024-01-11T15:58:32.693Z,2.76
2024-01-11T16:03:40.824Z,2.57
2024-01-11T16:08:48.661Z,2.68
2024-01-11T16:13:56.093Z,2.78
2024-01-11T16:19:03.895Z,2.54
2024-01-11T16:24:11.712Z,2.58
2024-01-11T16:29:19.577Z,2.83
2024-01-11T16:34:27.538Z,2.76
2024-01-11T16:39:27.948Z,2.73
2024-01-11T16:44:37.647Z,2.54
2024-01-11T16:49:45.384Z,2.60
2024-01-11T16:54:53.176Z,2.48
2024-01-11T17:00:00.794Z,2.36
2024-01-11T17:05:11.073Z,2.55
2024-01-11T17:10:08.481Z,2.54
2024-01-11T17:15:16.440Z,2.58
2024-01-11T17:20:24.182Z,2.62
2024-01-11T17:25:32.056Z,2.33
2024-01-11T17:30:39.642Z,2.30
2024-01-11T17:35:47.704Z,2.50
2024-01-11T17:40:55.313Z,2.30
2024-01-11T17:46:03.434Z,2.28
2024-01-11T17:51:11.272Z,2.40
2024-01-11T17:56:19.129Z,2.42
2024-01-11T18:01:26.644Z,2.38
2024-01-11T18:06:34.930Z,2.40
2024-01-11T18:11:42.390Z,2.19
2024-01-11T18:16:51.034Z,2.24
2024-01-11T18:21:58.522Z,2.10
2024-01-11T18:27:06.546Z,2.23
2024-01-11T18:32:14.049Z,2.33
2024-01-11T18:37:22.077Z,2.37
2024-01-11T18:42:33.203Z,2.26
2024-01-11T18:47:31.282Z,2.25
2024-01-11T18:52:39.995Z,2.23
2024-01-11T18:57:47.824Z,2.29
2024-01-11T19:02:55.511Z,2.40
2024-01-11T19:08:06.831Z,2.15
2024-01-11T19:13:04.208Z,2.26
2024-01-11T19:18:12.312Z,2.28
2024-01-11T19:23:19.914Z,2.19
2024-01-11T19:28:27.588Z,2.30
2024-01-11T19:33:35.146Z,2.12
2024-01-11T19:38:44.782Z,2.11
2024-01-11T19:43:52.406Z,2.14
2024-01-11T19:49:00.389Z,2.26
2024-01-11T19:54:07.930Z,2.15
2024-01-11T19:59:16.410Z,1.96
2024-01-11T20:04:23.829Z,2.11
2024-01-11T20:09:32.856Z,2.00
2024-01-11T20:14:40.754Z,2.07
2024-01-11T20:19:48.693Z,2.03
2024-01-11T20:24:56.036Z,1.99
2024-01-11T20:30:04.393Z,2.07
2024-01-11T20:35:11.432Z,2.06
2024-01-11T20:40:19.011Z,2.05
2024-01-11T20:45:26.682Z,2.05
2024-01-11T20:50:35.724Z,2.08
2024-01-11T20:55:43.310Z,2.01
2024-01-11T21:00:51.369Z,2.01
2024-01-11T21:05:59.143Z,2.05
2024-01-11T21:11:06.895Z,2.00
2024-01-11T21:16:16.355Z,1.86
2024-01-11T21:21:25.304Z,2.11
2024-01-11T21:26:33.062Z,2.06
2024-01-11T21:31:34.463Z,1.94
2024-01-11T21:36:42.320Z,1.89
2024-01-11T21:41:50.534Z,1.97
2024-01-11T21:46:58.916Z,1.84
2024-01-11T21:52:07.105Z,1.92
2024-01-11T21:57:14.823Z,1.77
2024-01-11T22:02:24.394Z,1.80
2024-01-11T22:07:32.033Z,2.00
2024-01-11T22:12:40.047Z,1.86
2024-01-11T22:17:47.849Z,1.89
2024-01-11T22:22:55.183Z,1.84
2024-01-11T22:28:02.637Z,1.90
2024-01-11T22:33:14.606Z,1.85
2024-01-11T22:38:17.678Z,1.76
2024-01-11T22:43:26.711Z,1.79
2024-01-11T22:48:34.481Z,1.62
2024-01-11T22:53:44.452Z,1.75
2024-01-11T22:58:52.168Z,1.58
2024-01-11T23:04:01.415Z,2.03
2024-01-11T23:09:08.966Z,1.69
2024-01-11T23:14:18.077Z,1.81
2024-01-11T23:19:25.754Z,1.78
2024-01-11T23:24:33.606Z,2.05
2024-01-11T23:29:42.533Z,1.77
2024-01-11T23:34:51.274Z,1.81
2024-01-11T23:39:58.723Z,1.80
2024-01-11T23:45:06.668Z,1.68
2024-01-11T23:50:14.390Z,1.88
2024-01-11T23:55:22.423Z,1.90
